Time;durP1;ratioP1;P1;durP2;ratioP2;P2;SDS_P1;SDS_P2;PMS_P1;PMS_P2;Temp;Humidity;BMP_temperature;BMP_pressure;BME280_temperature;BME280_humidity;BME280_pressure;Samples;Min_cycle;Max_cycle;Signal;HPM_P1;HPM_P2
2022/09/14 00:02:01;;;;;;;58.53;55.00;;;18.90;99.90;;;;;;4993075;28;20208;-73
2022/09/14 00:04:29;;;;;;;49.00;46.53;;;18.90;99.90;;;;;;4990976;28;20586;-73
2022/09/14 00:06:55;;;;;;;44.10;41.97;;;18.80;99.90;;;;;;4992282;28;20185;-73
2022/09/14 00:09:23;;;;;;;37.67;35.83;;;18.90;99.90;;;;;;4992860;28;20227;-73
2022/09/14 00:11:50;;;;;;;30.83;29.17;;;18.80;99.90;;;;;;4992397;28;20579;-73
2022/09/14 00:14:16;;;;;;;25.57;24.07;;;18.80;99.90;;;;;;4992019;28;20192;-73
2022/09/14 00:16:43;;;;;;;24.53;23.10;;;18.90;99.90;;;;;;4992606;28;20214;-69
2022/09/14 00:19:21;;;;;;;19.77;18.58;;;18.90;99.90;;;;;;4991422;28;20176;-73
2022/09/14 00:21:51;;;;;;;18.83;17.80;;;18.90;99.90;;;;;;4990609;28;20212;-74
2022/09/14 00:24:18;;;;;;;20.40;19.40;;;18.90;99.90;;;;;;4990991;28;20191;-74
2022/09/14 00:26:44;;;;;;;18.03;17.03;;;18.90;99.90;;;;;;4991175;28;20181;-74
2022/09/14 00:29:10;;;;;;;16.30;15.30;;;18.90;99.90;;;;;;4992540;28;20231;-74
2022/09/14 00:31:38;;;;;;;15.97;14.87;;;19.00;99.90;;;;;;4990986;28;20698;-74
2022/09/14 00:34:06;;;;;;;14.70;13.80;;;19.00;99.90;;;;;;4992933;28;20215;-74
2022/09/14 00:36:37;;;;;;;14.97;14.17;;;19.00;99.90;;;;;;4992423;28;20200;-74
2022/09/14 00:39:03;;;;;;;16.03;14.93;;;19.00;99.90;;;;;;4992101;28;20181;-74
2022/09/14 00:41:33;;;;;;;14.20;13.30;;;18.90;99.90;;;;;;4990970;28;20224;-73
2022/09/14 00:44:04;;;;;;;12.70;11.90;;;18.90;99.90;;;;;;4992547;28;20208;-74
2022/09/14 00:46:34;;;;;;;13.17;12.43;;;18.90;99.90;;;;;;4991790;28;20188;-74
2022/09/14 00:49:03;;;;;;;11.23;10.73;;;19.00;99.90;;;;;;4990876;28;20256;-74
2022/09/14 00:51:31;;;;;;;12.03;11.40;;;19.00;99.90;;;;;;4991543;28;20263;-74
2022/09/14 00:54:01;;;;;;;13.50;12.50;;;19.00;99.90;;;;;;4991604;28;20192;-74
2022/09/14 00:56:27;;;;;;;14.67;13.77;;;19.00;99.90;;;;;;4992460;28;20216;-74
2022/09/14 00:58:56;;;;;;;12.33;11.73;;;19.00;99.90;;;;;;4992139;28;20254;-74
2022/09/14 01:01:22;;;;;;;12.07;11.07;;;19.00;99.90;;;;;;4991235;28;20216;-74
2022/09/14 01:03:48;;;;;;;12.83;11.87;;;19.00;99.90;;;;;;4990293;28;20227;-74
2022/09/14 01:06:40;;;;;;;13.00;12.33;;;19.00;99.90;;;;;;4992192;28;20204;-73
2022/09/14 01:09:21;;;;;;;12.97;12.37;;;18.90;99.90;;;;;;4991284;28;20239;-74
2022/09/14 01:11:50;;;;;;;9.60;9.17;;;18.90;99.90;;;;;;4982724;28;20239;-74
2022/09/14 01:14:30;;;;;;;11.27;10.33;;;18.90;99.90;;;;;;4992540;28;20312;-74
2022/09/14 01:17:05;;;;;;;10.20;9.60;;;18.90;99.90;;;;;;4992033;28;20223;-73
2022/09/14 01:20:09;;;;;;;9.18;8.55;;;18.80;99.90;;;;;;4991122;28;20188;-74
2022/09/14 01:23:07;;;;;;;9.87;9.17;;;18.90;99.90;;;;;;4991859;28;20210;-73
2022/09/14 01:25:55;;;;;;;13.32;12.48;;;19.00;99.90;;;;;;4990924;28;20188;-73
2022/09/14 01:28:30;;;;;;;18.60;17.60;;;18.90;99.90;;;;;;4990040;28;20195;-74
2022/09/14 01:31:01;;;;;;;43.20;40.80;;;18.90;99.90;;;;;;4990896;28;20203;-73
2022/09/14 01:33:39;;;;;;;60.93;58.03;;;18.80;99.90;;;;;;4991667;28;20188;-73
2022/09/14 01:36:08;;;;;;;74.47;70.63;;;18.90;99.90;;;;;;4989966;28;20229;-74
2022/09/14 01:38:44;;;;;;;185.53;176.07;;;18.80;99.90;;;;;;4991063;28;20243;-74
2022/09/14 01:41:13;;;;;;;221.00;209.73;;;18.80;99.90;;;;;;4990708;28;20203;-73
2022/09/14 01:43:47;;;;;;;275.20;260.90;;;18.80;99.90;;;;;;4990839;28;20187;-73
2022/09/14 01:46:20;;;;;;;336.40;318.53;;;18.80;99.90;;;;;;4991878;28;20596;-73
2022/09/14 01:49:01;;;;;;;575.63;534.37;;;18.80;99.90;;;;;;4990711;28;20184;-73
2022/09/14 01:52:05;;;;;;;567.03;515.80;;;18.70;99.90;;;;;;4990575;28;20211;-75
2022/09/14 01:54:38;;;;;;;192.43;182.07;;;18.30;99.90;;;;;;4974575;28;20382;-74
2022/09/14 01:57:22;;;;;;;54.03;50.47;;;17.90;99.90;;;;;;4980330;28;20195;-76
2022/09/14 01:59:51;;;;;;;70.73;66.57;;;17.70;99.90;;;;;;4972281;28;20181;-75
2022/09/14 02:02:28;;;;;;;141.83;132.87;;;17.60;99.90;;;;;;4987941;28;20219;-76
2022/09/14 02:05:08;;;;;;;85.07;79.90;;;17.70;99.90;;;;;;4990745;28;20279;-76
2022/09/14 02:07:35;;;;;;;153.47;145.17;;;17.70;99.90;;;;;;4990473;28;20280;-76
2022/09/14 02:10:03;;;;;;;510.30;473.00;;;17.50;99.90;;;;;;4991729;28;20220;-76
2022/09/14 02:12:30;;;;;;;497.17;455.23;;;17.50;99.90;;;;;;4991620;28;20208;-77
2022/09/14 02:14:55;;;;;;;420.63;388.90;;;17.50;99.90;;;;;;4991746;28;20696;-75
2022/09/14 02:17:21;;;;;;;346.83;325.63;;;17.40;99.90;;;;;;4990204;28;20264;-76
2022/09/14 02:19:53;;;;;;;94.87;89.07;;;17.30;99.90;;;;;;4991946;28;20231;-75
2022/09/14 02:22:19;;;;;;;58.93;55.60;;;17.30;99.90;;;;;;4990194;28;20205;-76
2022/09/14 02:24:46;;;;;;;71.60;67.37;;;17.30;99.90;;;;;;4990931;28;20180;-76
2022/09/14 02:27:12;;;;;;;401.90;378.17;;;17.20;99.90;;;;;;4990603;28;20184;-74
2022/09/14 02:29:38;;;;;;;270.73;254.90;;;17.20;99.90;;;;;;4989144;28;20184;-73
2022/09/14 02:32:43;;;;;;;96.47;91.00;;;17.10;99.90;;;;;;4990787;28;20200;-73
2022/09/14 02:35:34;;;;;;;65.37;61.33;;;17.00;99.90;;;;;;4976138;28;20730;-74
2022/09/14 02:38:09;;;;;;;212.67;200.13;;;17.00;99.90;;;;;;4969991;28;20628;-74
2022/09/14 02:40:42;;;;;;;89.87;84.90;;;17.00;99.90;;;;;;4970493;28;20272;-73
2022/09/14 02:43:35;;;;;;;165.53;155.57;;;17.00;99.90;;;;;;4970069;28;20185;-74
2022/09/14 02:46:13;;;;;;;84.47;79.30;;;17.00;99.90;;;;;;4971548;28;20196;-75
2022/09/14 02:49:03;;;;;;;77.17;72.70;;;17.10;99.90;;;;;;4973547;28;20184;-75
2022/09/14 02:51:51;;;;;;;54.80;51.50;;;17.10;99.90;;;;;;4973647;28;20211;-75
2022/09/14 02:54:23;;;;;;;76.37;71.77;;;17.20;99.90;;;;;;4988774;28;20716;-75
2022/09/14 02:56:49;;;;;;;54.40;51.40;;;17.20;99.90;;;;;;4994094;28;20222;-74
2022/09/14 02:59:15;;;;;;;52.23;49.13;;;17.10;99.90;;;;;;4993566;28;20259;-73
2022/09/14 03:01:41;;;;;;;59.60;56.07;;;17.00;99.90;;;;;;4992994;28;20612;-77
2022/09/14 03:04:07;;;;;;;64.70;61.10;;;17.00;99.90;;;;;;4994256;28;20191;-76
2022/09/14 03:06:33;;;;;;;67.10;63.20;;;17.00;99.90;;;;;;4993737;28;20192;-76
2022/09/14 03:09:00;;;;;;;60.70;56.93;;;17.00;99.90;;;;;;4992829;28;20188;-76
2022/09/14 03:11:25;;;;;;;46.70;43.40;;;17.10;99.90;;;;;;4995246;28;20700;-75
2022/09/14 03:13:51;;;;;;;34.53;32.20;;;17.20;99.90;;;;;;4995785;28;20184;-77
2022/09/14 03:16:17;;;;;;;56.23;52.80;;;17.20;99.90;;;;;;4993179;28;20227;-76
2022/09/14 03:18:43;;;;;;;32.97;30.63;;;17.20;99.90;;;;;;4991751;28;20172;-77
2022/09/14 03:21:15;;;;;;;52.47;49.37;;;17.30;99.90;;;;;;4993930;28;20235;-77
2022/09/14 03:23:46;;;;;;;36.97;34.30;;;17.30;99.90;;;;;;4992824;28;20287;-77
2022/09/14 03:26:19;;;;;;;19.57;17.97;;;17.30;99.90;;;;;;4993977;28;20212;-78
2022/09/14 03:28:50;;;;;;;42.73;39.63;;;17.30;99.90;;;;;;4991311;28;20184;-77
2022/09/14 03:31:17;;;;;;;35.57;33.17;;;17.30;99.90;;;;;;4993565;28;20208;-78
2022/09/14 03:33:42;;;;;;;37.57;35.13;;;17.40;99.90;;;;;;4992856;28;20560;-77
2022/09/14 03:36:11;;;;;;;20.83;19.37;;;17.40;99.90;;;;;;4993688;28;20200;-77
2022/09/14 03:38:37;;;;;;;29.00;27.03;;;17.40;99.90;;;;;;4992365;28;20172;-77
2022/09/14 03:41:09;;;;;;;26.73;24.87;;;17.40;99.90;;;;;;4993559;28;20210;-77
2022/09/14 03:43:35;;;;;;;50.17;47.23;;;17.40;99.90;;;;;;4992389;28;20665;-77
2022/09/14 03:46:14;;;;;;;55.60;52.37;;;17.40;99.90;;;;;;4993485;28;20252;-76
2022/09/14 03:48:40;;;;;;;28.47;26.30;;;17.40;99.90;;;;;;4991552;28;20191;-77
2022/09/14 03:51:08;;;;;;;55.60;52.47;;;17.30;99.90;;;;;;4992132;28;20196;-77
2022/09/14 03:53:35;;;;;;;97.77;92.50;;;17.30;99.90;;;;;;4993396;28;20191;-78
2022/09/14 03:56:09;;;;;;;45.07;42.13;;;17.30;99.90;;;;;;4992214;28;20235;-77
2022/09/14 03:58:35;;;;;;;35.30;32.90;;;17.40;99.90;;;;;;4991491;28;20245;-77
2022/09/14 04:01:06;;;;;;;29.97;28.20;;;17.40;99.90;;;;;;4993878;28;20207;-77
2022/09/14 04:03:33;;;;;;;28.57;26.40;;;17.40;99.90;;;;;;4992952;28;20180;-76
2022/09/14 04:06:00;;;;;;;27.60;25.50;;;17.30;99.90;;;;;;4992081;28;20657;-76
2022/09/14 04:08:25;;;;;;;30.67;28.67;;;17.20;99.90;;;;;;4990603;28;20275;-76
2022/09/14 04:10:51;;;;;;;27.87;25.73;;;17.20;99.90;;;;;;4993011;28;20219;-78
2022/09/14 04:13:17;;;;;;;39.97;37.57;;;17.30;99.90;;;;;;4991697;28;20199;-76
2022/09/14 04:15:43;;;;;;;29.77;27.83;;;17.30;99.90;;;;;;4991778;28;20287;-77
2022/09/14 04:18:09;;;;;;;55.80;52.10;;;17.30;99.90;;;;;;4991756;28;20272;-77
2022/09/14 04:20:36;;;;;;;79.30;74.70;;;17.30;99.90;;;;;;4992439;28;20208;-77
2022/09/14 04:23:02;;;;;;;126.37;119.43;;;17.40;99.90;;;;;;4992963;28;20230;-77
2022/09/14 04:25:27;;;;;;;85.37;80.67;;;17.40;99.90;;;;;;4990867;28;20219;-75
2022/09/14 04:27:53;;;;;;;72.67;67.93;;;17.40;99.90;;;;;;4983033;28;20283;-76
2022/09/14 04:30:20;;;;;;;39.53;36.60;;;17.40;99.90;;;;;;4979958;28;20713;-75
2022/09/14 04:32:46;;;;;;;42.90;40.23;;;17.40;99.90;;;;;;4972874;28;20212;-78
2022/09/14 04:35:12;;;;;;;44.63;41.70;;;17.40;99.90;;;;;;4972851;28;20582;-77
2022/09/14 04:37:38;;;;;;;84.20;79.03;;;17.40;99.90;;;;;;4972057;28;20180;-77
2022/09/14 04:40:04;;;;;;;139.30;130.97;;;17.40;99.90;;;;;;4986168;28;20608;-76
2022/09/14 04:42:30;;;;;;;35.17;32.70;;;17.40;99.90;;;;;;4991379;28;20251;-75
2022/09/14 04:44:55;;;;;;;56.33;52.90;;;17.40;99.90;;;;;;4991199;28;20180;-75
2022/09/14 04:47:21;;;;;;;50.03;46.90;;;17.40;99.90;;;;;;4990940;28;20180;-76
2022/09/14 04:49:47;;;;;;;68.33;64.17;;;17.40;99.90;;;;;;4992136;28;20744;-75
2022/09/14 04:52:13;;;;;;;93.80;87.93;;;17.50;99.90;;;;;;4990511;28;20299;-75
2022/09/14 04:54:38;;;;;;;66.70;62.97;;;17.50;99.90;;;;;;4991335;28;20223;-75
2022/09/14 04:57:04;;;;;;;33.87;31.77;;;17.50;99.90;;;;;;4991235;28;20546;-77
2022/09/14 04:59:31;;;;;;;33.87;31.47;;;17.60;99.90;;;;;;4990527;28;20185;-77
2022/09/14 05:01:56;;;;;;;36.97;34.57;;;17.60;99.90;;;;;;4990663;28;20212;-79
2022/09/14 05:04:22;;;;;;;41.97;39.30;;;17.60;99.90;;;;;;4992475;28;20183;-77
2022/09/14 05:06:49;;;;;;;65.77;61.63;;;17.60;99.90;;;;;;4987405;28;20301;-78
2022/09/14 05:09:17;;;;;;;122.23;114.63;;;17.60;99.90;;;;;;4991459;28;20180;-77
2022/09/14 05:11:44;;;;;;;170.27;160.17;;;17.60;99.90;;;;;;4989655;28;20208;-77
2022/09/14 05:14:12;;;;;;;216.03;203.20;;;17.60;99.90;;;;;;4990138;28;20195;-77
2022/09/14 05:16:40;;;;;;;233.03;218.87;;;17.60;99.90;;;;;;4991150;28;20220;-79
2022/09/14 05:19:10;;;;;;;197.77;185.50;;;17.60;99.90;;;;;;4991841;28;20180;-77
2022/09/14 05:21:37;;;;;;;219.57;205.93;;;17.50;99.90;;;;;;4989791;28;20204;-78
2022/09/14 05:24:14;;;;;;;220.50;207.00;;;17.50;99.90;;;;;;4991833;28;20219;-78
2022/09/14 05:26:42;;;;;;;182.37;170.90;;;17.60;99.90;;;;;;4990794;28;20184;-76
2022/09/14 05:29:12;;;;;;;211.00;197.80;;;17.60;99.90;;;;;;4991666;28;20199;-76
2022/09/14 05:31:38;;;;;;;171.80;161.13;;;17.60;99.90;;;;;;4992680;28;20696;-78
2022/09/14 05:34:03;;;;;;;208.27;195.50;;;17.70;99.90;;;;;;4992320;28;20180;-77
2022/09/14 05:36:29;;;;;;;184.43;172.83;;;17.70;99.90;;;;;;4990757;28;20212;-77
2022/09/14 05:38:56;;;;;;;235.20;220.67;;;17.70;99.90;;;;;;4990930;28;20184;-76
2022/09/14 05:41:23;;;;;;;251.03;235.97;;;17.70;99.90;;;;;;4989813;28;21023;-77
2022/09/14 05:43:49;;;;;;;221.97;208.73;;;17.70;99.90;;;;;;4990279;28;20176;-77
2022/09/14 05:46:19;;;;;;;204.03;191.90;;;17.70;99.90;;;;;;4992907;28;20196;-77
2022/09/14 05:48:45;;;;;;;212.03;198.97;;;17.70;99.90;;;;;;4992413;28;20191;-77
2022/09/14 05:51:14;;;;;;;195.60;183.97;;;17.70;99.90;;;;;;4990417;28;20200;-77
2022/09/14 05:53:41;;;;;;;210.73;198.73;;;17.70;99.90;;;;;;4991626;28;20584;-76
2022/09/14 05:56:10;;;;;;;210.57;198.30;;;17.80;99.90;;;;;;4991504;28;20688;-76
2022/09/14 05:58:37;;;;;;;209.83;197.83;;;17.90;99.90;;;;;;4990908;28;20616;-76
2022/09/14 06:01:08;;;;;;;187.50;177.03;;;17.90;99.90;;;;;;4989697;28;20216;-76
2022/09/14 06:03:35;;;;;;;162.80;153.37;;;18.00;99.90;;;;;;4990157;28;20614;-75
2022/09/14 06:06:01;;;;;;;193.07;182.57;;;18.00;99.90;;;;;;4991822;28;20566;-76
2022/09/14 06:08:27;;;;;;;176.07;166.13;;;18.00;99.90;;;;;;4990633;28;20192;-75
2022/09/14 06:10:52;;;;;;;191.33;181.43;;;18.10;99.90;;;;;;4991186;28;20187;-76
2022/09/14 06:13:18;;;;;;;119.90;113.20;;;18.20;99.90;;;;;;4990998;28;20188;-77
2022/09/14 06:15:44;;;;;;;90.53;85.53;;;18.30;99.90;;;;;;4991427;28;20219;-76
2022/09/14 06:18:10;;;;;;;173.60;164.43;;;18.50;99.90;;;;;;4990541;28;20267;-76
2022/09/14 06:20:36;;;;;;;133.80;126.70;;;18.60;99.90;;;;;;4991284;28;20184;-76
2022/09/14 06:23:02;;;;;;;127.73;120.73;;;18.70;99.90;;;;;;4993978;28;20191;-76
2022/09/14 06:25:27;;;;;;;138.57;131.37;;;18.80;99.90;;;;;;4996514;28;20192;-76
2022/09/14 06:27:53;;;;;;;61.70;58.43;;;19.00;99.90;;;;;;4993310;28;20188;-76
2022/09/14 06:30:20;;;;;;;84.73;80.13;;;19.20;99.90;;;;;;4995266;28;20609;-77
2022/09/14 06:32:45;;;;;;;228.87;215.67;;;19.50;99.90;;;;;;4995266;28;20204;-77
2022/09/14 06:35:11;;;;;;;30.97;29.03;;;19.70;99.90;;;;;;4994957;28;20588;-76
2022/09/14 06:37:37;;;;;;;84.07;79.30;;;19.80;99.90;;;;;;4994081;28;20616;-76
2022/09/14 06:40:03;;;;;;;69.30;65.10;;;19.90;99.90;;;;;;4994803;28;20172;-77
2022/09/14 06:42:30;;;;;;;58.77;55.13;;;20.10;99.90;;;;;;4992723;28;20200;-76
2022/09/14 06:44:55;;;;;;;24.50;22.85;;;20.20;99.90;;;;;;4994945;28;20714;-76
2022/09/14 06:47:22;;;;;;;45.90;43.28;;;20.50;99.90;;;;;;4993926;28;20300;-76
2022/09/14 06:49:49;;;;;;;63.75;59.97;;;20.60;99.90;;;;;;4994602;28;20560;-76
2022/09/14 06:52:15;;;;;;;160.05;151.85;;;20.70;99.90;;;;;;4994262;28;20644;-77
2022/09/14 06:54:41;;;;;;;102.18;96.72;;;20.80;99.90;;;;;;4994755;28;20176;-77
2022/09/14 06:57:07;;;;;;;35.65;33.35;;;21.10;99.90;;;;;;4993819;28;20188;-76
2022/09/14 06:59:32;;;;;;;39.92;37.63;;;21.20;99.90;;;;;;4994310;28;20189;-77
2022/09/14 07:01:58;;;;;;;35.33;33.20;;;21.20;99.90;;;;;;4995268;28;20351;-77
2022/09/14 07:04:25;;;;;;;45.25;42.75;;;21.20;99.90;;;;;;4995026;28;20176;-76
2022/09/14 07:06:50;;;;;;;33.38;31.55;;;21.10;99.90;;;;;;4992627;28;20184;-75
2022/09/14 07:09:18;;;;;;;27.17;25.27;;;21.10;99.90;;;;;;4994241;28;20177;-77
2022/09/14 07:11:44;;;;;;;19.40;18.23;;;21.00;99.90;;;;;;4992873;28;20224;-76
2022/09/14 07:14:11;;;;;;;13.75;12.77;;;21.00;99.90;;;;;;4994357;28;20263;-77
2022/09/14 07:16:38;;;;;;;8.98;8.38;;;20.90;99.90;;;;;;4994029;28;21060;-76
2022/09/14 07:19:08;;;;;;;7.95;7.15;;;20.90;99.90;;;;;;4993423;28;20184;-76
2022/09/14 07:21:34;;;;;;;8.70;6.97;;;20.90;99.90;;;;;;4993636;28;20196;-76
2022/09/14 07:24:01;;;;;;;11.90;10.93;;;21.00;99.90;;;;;;4992741;28;20240;-77
2022/09/14 07:26:38;;;;;;;9.75;9.25;;;21.00;99.90;;;;;;4993590;28;20185;-76
2022/09/14 07:29:06;;;;;;;34.22;32.28;;;20.90;99.90;;;;;;4992772;28;20192;-77
2022/09/14 07:31:36;;;;;;;104.75;99.20;;;20.80;99.90;;;;;;4993378;28;20212;-77
2022/09/14 07:34:04;;;;;;;253.75;240.88;;;21.00;99.90;;;;;;4991890;28;20671;-77
2022/09/14 07:36:32;;;;;;;181.35;172.15;;;21.20;99.90;;;;;;4992837;28;20200;-76
2022/09/14 07:38:58;;;;;;;56.25;53.13;;;21.50;99.90;;;;;;4991916;28;20191;-75
2022/09/14 07:41:27;;;;;;;16.00;13.88;;;21.80;99.90;;;;;;4992007;28;20208;-76
2022/09/14 07:43:55;;;;;;;44.03;41.75;;;22.00;99.90;;;;;;4992458;28;20548;-75
2022/09/14 07:46:22;;;;;;;29.55;28.00;;;22.20;99.90;;;;;;4993569;28;20207;-75
2022/09/14 07:48:56;;;;;;;9.55;8.95;;;22.30;99.90;;;;;;4992577;28;20188;-76
2022/09/14 07:51:23;;;;;;;12.90;12.13;;;22.40;99.90;;;;;;4993045;28;20263;-76
2022/09/14 07:53:49;;;;;;;45.42;42.63;;;22.20;99.90;;;;;;4991698;28;20189;-75
2022/09/14 07:56:15;;;;;;;42.95;40.63;;;22.20;99.90;;;;;;4993198;28;20212;-76
2022/09/14 07:58:42;;;;;;;49.13;46.47;;;22.20;99.90;;;;;;4992559;28;20177;-75
2022/09/14 08:01:13;;;;;;;58.38;55.20;;;22.40;99.90;;;;;;4992929;28;20208;-75
2022/09/14 08:03:42;;;;;;;22.77;21.48;;;22.80;99.90;;;;;;4982151;28;20193;-76
2022/09/14 08:06:11;;;;;;;14.43;13.57;;;23.40;99.90;;;;;;4971895;28;20569;-76
2022/09/14 08:08:40;;;;;;;21.02;19.33;;;23.90;99.90;;;;;;4972821;28;20275;-76
2022/09/14 08:11:15;;;;;;;123.57;117.28;;;24.30;99.90;;;;;;4979880;28;20632;-75
2022/09/14 08:13:43;;;;;;;55.03;52.22;;;24.60;99.90;;;;;;4984447;28;20567;-75
2022/09/14 08:16:10;;;;;;;28.92;27.38;;;24.70;99.90;;;;;;4974101;28;20216;-75
2022/09/14 08:18:37;;;;;;;44.33;41.92;;;24.50;99.90;;;;;;4972708;28;20232;-75
2022/09/14 08:21:08;;;;;;;26.45;24.73;;;24.40;99.90;;;;;;4980259;28;20205;-75
2022/09/14 08:23:35;;;;;;;53.45;50.70;;;24.30;99.90;;;;;;4992747;28;20188;-76
2022/09/14 08:26:03;;;;;;;41.72;39.58;;;24.20;99.90;;;;;;4992926;28;20184;-75
2022/09/14 08:28:29;;;;;;;75.50;71.68;;;24.20;99.90;;;;;;4991910;28;20188;-75
2022/09/14 08:30:55;;;;;;;42.78;40.42;;;24.30;99.90;;;;;;4991372;28;20246;-75
2022/09/14 08:33:21;;;;;;;78.00;74.00;;;24.20;99.90;;;;;;4992580;28;20887;-75
2022/09/14 08:35:47;;;;;;;8.82;8.02;;;23.90;99.90;;;;;;4992591;28;20220;-75
2022/09/14 08:38:13;;;;;;;18.15;16.92;;;24.00;99.90;;;;;;4991870;28;20181;-75
2022/09/14 08:40:46;;;;;;;58.05;54.95;;;23.90;99.90;;;;;;4992279;28;20191;-76
2022/09/14 08:43:13;;;;;;;64.50;61.20;;;23.90;99.90;;;;;;4992622;28;20204;-75
2022/09/14 08:45:43;;;;;;;130.93;124.15;;;23.90;99.90;;;;;;4992581;28;20187;-76
2022/09/14 08:48:24;;;;;;;241.63;228.88;;;23.80;99.90;;;;;;4991609;28;20557;-75
2022/09/14 08:50:52;;;;;;;305.95;289.50;;;23.80;99.90;;;;;;4992121;28;20183;-76
2022/09/14 08:53:21;;;;;;;302.42;286.58;;;23.90;99.90;;;;;;4992079;28;20180;-76
2022/09/14 08:56:01;;;;;;;197.77;187.52;;;23.90;99.90;;;;;;4992366;28;20589;-76
2022/09/14 08:58:57;;;;;;;67.20;63.50;;;23.90;99.90;;;;;;4991645;28;20180;-76
2022/09/14 09:01:56;;;;;;;131.70;125.00;;;23.80;99.90;;;;;;4938764;28;20264;-74
2022/09/14 09:04:38;;;;;;;248.20;235.30;;;23.80;99.90;;;;;;4991418;28;20250;-74
2022/09/14 09:07:28;;;;;;;287.20;271.67;;;23.70;99.90;;;;;;4989624;28;21032;-74
2022/09/14 09:09:56;;;;;;;308.15;291.80;;;23.70;99.90;;;;;;4985851;28;20185;-73
2022/09/14 09:12:36;;;;;;;307.90;291.80;;;23.80;99.90;;;;;;4987996;28;20196;-73
2022/09/14 09:15:30;;;;;;;231.25;219.07;;;24.00;99.90;;;;;;4991087;28;20207;-74
2022/09/14 09:18:24;;;;;;;290.10;274.70;;;24.50;99.90;;;;;;4990877;28;20552;-74
2022/09/14 09:20:56;;;;;;;62.00;58.78;;;25.30;99.90;;;;;;4981775;28;20216;-73
2022/09/14 09:23:24;;;;;;;46.33;43.83;;;25.90;99.90;;;;;;4990994;28;20597;-74
2022/09/14 09:25:52;;;;;;;20.50;19.27;;;26.30;99.90;;;;;;4991273;28;20192;-75
2022/09/14 09:28:21;;;;;;;7.38;6.80;;;26.90;99.90;;;;;;4990693;28;20211;-75
2022/09/14 09:30:47;;;;;;;12.95;12.25;;;27.40;99.90;;;;;;4990768;28;20223;-73
2022/09/14 09:33:22;;;;;;;15.02;14.00;;;27.90;99.90;;;;;;4991131;28;20567;-74
2022/09/14 09:35:50;;;;;;;19.77;18.40;;;28.30;99.90;;;;;;4992311;28;20283;-75
2022/09/14 09:38:23;;;;;;;64.90;61.55;;;28.60;99.90;;;;;;4990057;28;20307;-73
2022/09/14 09:41:14;;;;;;;46.25;43.70;;;28.90;99.90;;;;;;4991054;28;20776;-73
2022/09/14 09:44:05;;;;;;;58.03;54.97;;;29.10;99.90;;;;;;4990790;28;20247;-73
2022/09/14 09:46:37;;;;;;;38.72;36.58;;;29.60;99.90;;;;;;4990933;28;20199;-71
2022/09/14 09:49:21;;;;;;;25.88;24.00;;;30.00;99.90;;;;;;4990289;28;20207;-71
2022/09/14 09:51:48;;;;;;;26.02;24.27;;;29.30;99.90;;;;;;4990592;28;20720;-72
2022/09/14 09:54:14;;;;;;;49.35;46.83;;;28.50;99.90;;;;;;4991436;28;20176;-73
2022/09/14 09:56:56;;;;;;;49.47;46.67;;;27.90;99.90;;;;;;4990716;28;20711;-73
2022/09/14 09:59:31;;;;;;;70.45;66.78;;;27.50;99.90;;;;;;4974869;28;20177;-73
2022/09/14 10:02:32;;;;;;;37.63;35.72;;;27.30;99.90;;;;;;4933484;28;1209300;-73
2022/09/14 10:05:00;;;;;;;58.53;55.67;;;27.10;99.90;;;;;;4878835;29;20713;-73
2022/09/14 10:07:28;;;;;;;60.58;57.42;;;27.10;99.90;;;;;;4961134;28;20180;-72
2022/09/14 10:10:25;;;;;;;27.58;25.88;;;27.30;99.90;;;;;;4995362;28;20184;-72
2022/09/14 10:12:54;;;;;;;49.72;47.20;;;27.90;99.90;;;;;;4994675;28;20240;-73
2022/09/14 10:15:24;;;;;;;40.90;38.67;;;28.40;99.90;;;;;;4994124;28;20290;-73
2022/09/14 10:18:02;;;;;;;32.35;30.52;;;29.20;99.90;;;;;;4994087;28;20176;-74
2022/09/14 10:20:28;;;;;;;17.08;15.98;;;29.90;99.90;;;;;;4995410;28;20191;-72
2022/09/14 10:22:55;;;;;;;5.68;5.10;;;30.60;99.90;;;;;;4994232;28;20235;-73
2022/09/14 10:25:26;;;;;;;9.85;9.25;;;30.70;99.90;;;;;;4995321;28;20609;-71
2022/09/14 10:27:55;;;;;;;14.98;14.13;;;30.50;99.90;;;;;;4993850;28;20884;-74
2022/09/14 10:30:50;;;;;;;15.10;14.15;;;30.50;99.90;;;;;;4995014;28;20180;-73
2022/09/14 10:33:17;;;;;;;10.40;9.90;;;31.10;99.90;;;;;;4991328;28;20231;-73
2022/09/14 10:35:51;;;;;;;27.83;26.35;;;30.80;99.90;;;;;;4996669;28;20685;-74
2022/09/14 10:38:42;;;;;;;14.95;13.63;;;30.00;99.90;;;;;;4994011;28;20736;-73
2022/09/14 10:41:30;;;;;;;8.55;8.07;;;28.90;99.90;;;;;;4994771;28;20627;-73
2022/09/14 10:44:21;;;;;;;7.90;5.68;;;28.40;99.90;;;;;;4994539;28;20622;-72
2022/09/14 10:47:06;;;;;;;10.15;9.50;;;28.00;99.90;;;;;;4994482;28;20184;-72
2022/09/14 10:49:58;;;;;;;7.35;6.90;;;27.90;99.90;;;;;;4975650;28;20196;-74
2022/09/14 10:52:44;;;;;;;7.22;6.47;;;28.00;99.90;;;;;;4947426;28;20585;-72
2022/09/14 10:55:30;;;;;;;7.90;7.40;;;28.00;99.90;;;;;;4975298;28;20223;-72
2022/09/14 10:58:16;;;;;;;7.30;6.80;;;28.00;99.90;;;;;;4981869;28;20292;-72
2022/09/14 11:01:07;;;;;;;7.47;6.72;;;27.80;99.90;;;;;;4994745;28;20180;-73
2022/09/14 11:03:51;;;;;;;6.72;6.15;;;27.90;99.90;;;;;;4994651;28;20263;-75
2022/09/14 11:06:29;;;;;;;7.10;6.68;;;27.80;99.90;;;;;;4993466;28;20187;-72
2022/09/14 11:09:04;;;;;;;6.97;6.45;;;27.70;99.90;;;;;;4989021;28;20574;-72
2022/09/14 11:11:33;;;;;;;6.88;6.43;;;27.90;99.90;;;;;;4994401;28;20226;-74
2022/09/14 11:14:17;;;;;;;7.38;6.70;;;28.00;99.90;;;;;;4994461;28;20180;-73
2022/09/14 11:17:10;;;;;;;8.43;7.72;;;28.10;99.90;;;;;;4993811;28;20296;-73
2022/09/14 11:20:03;;;;;;;7.25;6.47;;;28.50;99.90;;;;;;4974815;28;20645;-73
2022/09/14 11:22:47;;;;;;;7.18;6.65;;;28.80;99.90;;;;;;4974721;28;20292;-73
2022/09/14 11:25:21;;;;;;;7.25;4.82;;;29.10;99.90;;;;;;4976214;28;20189;-77
2022/09/14 11:27:53;;;;;;;10.20;8.85;;;30.00;99.90;;;;;;4982944;28;20184;-80
2022/09/14 11:30:30;;;;;;;21.60;20.52;;;31.30;99.90;;;;;;4996943;28;20215;-78
2022/09/14 11:33:30;;;;;;;31.10;29.33;;;32.20;99.90;;;;;;4994028;28;20291;-77
2022/09/14 11:36:03;;;;;;;11.90;11.02;;;31.90;99.90;;;;;;4993902;28;20212;-77
2022/09/14 11:38:34;;;;;;;7.22;6.40;;;31.90;99.90;;;;;;4993236;28;20192;-77
2022/09/14 11:41:18;;;;;;;6.95;6.30;;;31.70;99.90;;;;;;4994659;28;20266;-76
2022/09/14 11:43:53;;;;;;;8.18;5.15;;;31.90;99.90;;;;;;4996753;28;20181;-76
2022/09/14 11:46:44;;;;;;;5.78;5.28;;;32.30;99.90;;;;;;4994951;28;20180;-76
2022/09/14 11:49:38;;;;;;;5.57;5.07;;;32.90;99.90;;;;;;4982902;28;20192;-76
2022/09/14 11:52:16;;;;;;;6.97;4.43;;;32.30;99.90;;;;;;4993735;28;20242;-77
2022/09/14 11:54:43;;;;;;;5.93;3.78;;;32.30;99.90;;;;;;4993609;28;20184;-76
2022/09/14 11:57:27;;;;;;;5.25;4.95;;;32.40;99.90;;;;;;4992959;28;20303;-76
2022/09/14 12:00:04;;;;;;;6.32;5.85;;;32.20;99.90;;;;;;4974402;28;20177;-75
2022/09/14 12:02:36;;;;;;;13.02;12.23;;;31.90;99.90;;;;;;4974061;28;20220;-75
2022/09/14 12:05:08;;;;;;;6.00;5.60;;;31.00;99.90;;;;;;4974067;28;20177;-76
2022/09/14 12:07:42;;;;;;;5.63;5.15;;;30.20;99.90;;;;;;4975948;28;20196;-75
2022/09/14 12:10:14;;;;;;;5.68;5.28;;;29.30;99.90;;;;;;4984654;28;20542;-75
2022/09/14 12:12:47;;;;;;;15.07;14.18;;;28.50;99.90;;;;;;4973914;28;20205;-76
2022/09/14 12:15:13;;;;;;;21.67;20.45;;;28.10;99.90;;;;;;4975485;28;20205;-76
2022/09/14 12:17:40;;;;;;;17.83;16.75;;;28.00;99.90;;;;;;4978787;28;20172;-74
2022/09/14 12:20:28;;;;;;;13.93;12.88;;;27.90;99.90;;;;;;4992658;28;20664;-74
2022/09/14 12:23:22;;;;;;;12.15;11.30;;;27.80;99.90;;;;;;4993084;28;20196;-74
2022/09/14 12:26:18;;;;;;;10.10;9.32;;;27.60;99.90;;;;;;4993804;28;20271;-74
2022/09/14 12:28:51;;;;;;;7.78;7.28;;;27.50;99.90;;;;;;4991951;28;20180;-74
2022/09/14 12:31:42;;;;;;;5.03;4.72;;;27.40;99.90;;;;;;4992912;28;20696;-74
2022/09/14 12:34:30;;;;;;;6.60;6.10;;;27.50;99.90;;;;;;4991509;28;20680;-73
2022/09/14 12:37:03;;;;;;;8.48;7.97;;;27.60;99.90;;;;;;4992059;28;20215;-74
2022/09/14 12:39:34;;;;;;;5.40;4.95;;;27.70;99.90;;;;;;4991438;28;20650;-74
2022/09/14 12:42:25;;;;;;;9.05;8.43;;;27.80;99.90;;;;;;4991302;28;20291;-74
2022/09/14 12:44:51;;;;;;;10.77;9.85;;;27.50;99.90;;;;;;4967641;28;20365;-74
2022/09/14 12:47:29;;;;;;;7.72;6.95;;;27.40;99.90;;;;;;4972001;28;20184;-73
2022/09/14 12:49:57;;;;;;;4.57;4.18;;;27.10;99.90;;;;;;4973294;28;20356;-74
2022/09/14 12:52:38;;;;;;;6.55;4.47;;;26.90;99.90;;;;;;4972790;28;20248;-74